createdAt,value
2019-03-15T00:01:40.297Z,6.47
2019-03-15T00:04:08.938Z,6.48
2019-03-15T00:06:37.540Z,6.48
2019-03-15T00:09:08.098Z,6.45
2019-03-15T00:11:36.765Z,6.45
2019-03-15T00:14:05.789Z,6.43
2019-03-15T00:16:34.421Z,6.42
2019-03-15T00:19:02.968Z,6.40
2019-03-15T00:21:31.603Z,6.30
2019-03-15T00:24:00.120Z,6.27
2019-03-15T00:26:28.758Z,6.21
2019-03-15T00:28:57.325Z,6.22
2019-03-15T00:31:25.817Z,6.17
2019-03-15T00:33:54.445Z,6.19
2019-03-15T00:36:23.080Z,6.20
2019-03-15T00:38:51.648Z,6.20
2019-03-15T00:41:20.202Z,6.16
2019-03-15T00:43:49.679Z,6.19
2019-03-15T00:46:18.519Z,6.22
2019-03-15T00:48:47.130Z,6.19
2019-03-15T00:51:15.715Z,6.22
2019-03-15T00:53:44.294Z,6.25
2019-03-15T00:56:12.857Z,6.24
2019-03-15T00:58:41.434Z,6.18
2019-03-15T01:01:10.231Z,6.16
2019-03-15T01:03:38.737Z,6.14
2019-03-15T01:06:07.377Z,6.12
2019-03-15T01:08:35.944Z,6.13
2019-03-15T01:11:04.651Z,6.15
2019-03-15T01:13:33.263Z,6.14
2019-03-15T01:16:01.932Z,6.16
2019-03-15T01:18:30.418Z,6.12
2019-03-15T01:20:59.026Z,6.11
2019-03-15T01:23:27.558Z,6.17
2019-03-15T01:25:56.120Z,6.22
2019-03-15T01:28:24.690Z,6.29
2019-03-15T01:30:53.786Z,6.36
2019-03-15T01:33:22.547Z,6.40
2019-03-15T01:35:51.173Z,6.45
2019-03-15T01:38:19.769Z,6.46
2019-03-15T01:40:48.978Z,6.43
2019-03-15T01:43:17.651Z,6.48
2019-03-15T01:45:46.287Z,6.48
2019-03-15T01:48:14.825Z,6.51
2019-03-15T01:50:43.379Z,6.54
2019-03-15T01:53:11.981Z,6.58
2019-03-15T01:55:40.590Z,6.39
2019-03-15T01:58:09.163Z,6.48
2019-03-15T02:00:38.610Z,6.61
2019-03-15T02:03:07.389Z,6.56
2019-03-15T02:05:36.079Z,6.57
2019-03-15T02:08:04.707Z,6.61
2019-03-15T02:10:33.267Z,6.61
2019-03-15T02:13:01.866Z,6.63
2019-03-15T02:15:30.545Z,6.65
2019-03-15T02:17:59.024Z,6.64
2019-03-15T02:20:27.600Z,6.61
2019-03-15T02:22:56.262Z,6.59
2019-03-15T02:25:24.791Z,6.23
2019-03-15T02:27:53.283Z,6.40
2019-03-15T02:30:21.925Z,6.46
2019-03-15T02:32:50.489Z,6.45
2019-03-15T02:35:19.937Z,6.40
2019-03-15T02:37:48.811Z,6.34
2019-03-15T02:40:17.426Z,6.32
2019-03-15T02:42:46.020Z,6.27
2019-03-15T02:45:14.668Z,6.29
2019-03-15T02:47:43.220Z,6.25
2019-03-15T02:50:11.844Z,6.29
2019-03-15T02:52:40.375Z,6.30
2019-03-15T02:55:08.951Z,6.29
2019-03-15T02:57:37.613Z,6.26
2019-03-15T03:00:08.350Z,6.25
2019-03-15T03:02:37.017Z,6.20
2019-03-15T03:05:10.343Z,6.19
2019-03-15T03:07:38.972Z,6.12
2019-03-15T03:10:09.125Z,6.07
2019-03-15T03:12:37.624Z,5.99
2019-03-15T03:15:07.549Z,5.94
2019-03-15T03:17:36.233Z,5.94
2019-03-15T03:20:06.564Z,5.92
2019-03-15T03:22:36.068Z,5.88
2019-03-15T03:25:05.911Z,5.82
2019-03-15T03:27:34.481Z,5.81
2019-03-15T03:30:03.270Z,5.78
2019-03-15T03:32:31.858Z,5.74
2019-03-15T03:35:00.696Z,5.72
2019-03-15T03:37:30.057Z,5.72
2019-03-15T03:39:58.663Z,5.69
2019-03-15T03:42:27.263Z,5.68
2019-03-15T03:44:55.833Z,5.64
2019-03-15T03:47:24.474Z,5.62
2019-03-15T03:49:53.556Z,5.61
2019-03-15T03:52:22.333Z,5.56
2019-03-15T03:54:50.978Z,5.52
2019-03-15T03:57:19.543Z,5.47
2019-03-15T03:59:48.175Z,5.45
2019-03-15T04:02:16.786Z,5.41
2019-03-15T04:04:45.414Z,5.45
2019-03-15T04:07:14.039Z,5.51
2019-03-15T04:09:42.575Z,5.59
2019-03-15T04:12:11.129Z,5.62
2019-03-15T04:14:39.770Z,5.65
2019-03-15T04:17:11.174Z,5.64
2019-03-15T04:19:39.749Z,5.68
2019-03-15T04:22:08.382Z,5.68
2019-03-15T04:24:37.051Z,5.73
2019-03-15T04:27:05.768Z,5.74
2019-03-15T04:29:34.335Z,5.78
2019-03-15T04:32:02.828Z,5.79
2019-03-15T04:34:31.426Z,5.88
2019-03-15T04:36:59.983Z,5.93
2019-03-15T04:39:28.669Z,6.00
2019-03-15T04:41:57.230Z,6.04
2019-03-15T04:44:25.789Z,6.09
2019-03-15T04:46:54.332Z,6.17
2019-03-15T04:49:22.899Z,6.19
2019-03-15T04:51:51.525Z,6.24
2019-03-15T04:54:20.053Z,6.26
2019-03-15T04:56:48.615Z,6.25
2019-03-15T04:59:17.173Z,6.27
2019-03-15T05:01:45.712Z,6.24
2019-03-15T05:04:14.275Z,6.28
2019-03-15T05:06:42.785Z,6.31
2019-03-15T05:09:11.258Z,6.31
2019-03-15T05:11:39.834Z,6.31
2019-03-15T05:14:08.521Z,6.28
2019-03-15T05:16:37.014Z,6.27
2019-03-15T05:19:05.610Z,6.27
2019-03-15T05:21:34.172Z,6.30
2019-03-15T05:24:02.781Z,6.38
2019-03-15T05:26:31.341Z,6.43
2019-03-15T05:28:59.936Z,6.45
2019-03-15T05:31:28.538Z,6.52
2019-03-15T05:33:57.093Z,6.63
2019-03-15T05:36:25.701Z,6.78
2019-03-15T05:38:54.268Z,6.89
2019-03-15T05:41:22.835Z,6.96
2019-03-15T05:43:53.136Z,6.97
2019-03-15T05:46:21.822Z,7.08
2019-03-15T05:48:50.374Z,7.18
2019-03-15T05:51:18.902Z,7.24
2019-03-15T05:53:47.466Z,7.28
2019-03-15T05:56:16.358Z,7.37
2019-03-15T05:58:45.195Z,7.50
2019-03-15T06:01:14.057Z,7.57
2019-03-15T06:03:48.408Z,7.61
2019-03-15T06:06:13.207Z,7.67
2019-03-15T06:08:41.889Z,7.75
2019-03-15T06:11:13.384Z,7.84
2019-03-15T06:13:42.110Z,7.91
2019-03-15T06:16:10.743Z,7.93
2019-03-15T06:18:42.219Z,8.00
2019-03-15T06:21:11.008Z,8.10
2019-03-15T06:23:39.857Z,8.13
2019-03-15T06:26:13.493Z,8.19
2019-03-15T06:28:42.210Z,8.28
2019-03-15T06:31:10.864Z,8.82
2019-03-15T06:33:42.504Z,9.32
2019-03-15T06:36:11.318Z,9.67
2019-03-15T06:38:40.062Z,10.01
2019-03-15T06:41:08.753Z,10.18
2019-03-15T06:43:37.472Z,10.23
2019-03-15T06:46:07.180Z,10.53
2019-03-15T06:48:35.956Z,10.69
2019-03-15T06:51:04.656Z,10.70
2019-03-15T06:53:33.401Z,10.85
2019-03-15T06:56:04.875Z,11.19
2019-03-15T06:58:33.573Z,11.54
2019-03-15T07:01:04.338Z,11.69
2019-03-15T07:03:32.754Z,11.83
2019-03-15T07:06:03.417Z,12.00
2019-03-15T07:08:32.087Z,12.45
2019-03-15T07:11:00.884Z,12.40
2019-03-15T07:13:29.628Z,12.33
2019-03-15T07:15:58.450Z,12.49
2019-03-15T07:21:13.796Z,12.73
2019-03-15T07:23:45.771Z,13.20
2019-03-15T07:26:14.627Z,13.33
2019-03-15T07:28:43.263Z,13.33
2019-03-15T07:31:12.054Z,13.62
2019-03-15T07:33:40.754Z,13.67
2019-03-15T07:36:09.483Z,13.86
2019-03-15T07:38:38.196Z,14.32
2019-03-15T07:41:06.913Z,14.37
2019-03-15T07:43:38.573Z,14.47
2019-03-15T07:46:07.266Z,14.62
2019-03-15T07:48:36.069Z,15.13
2019-03-15T07:51:04.813Z,15.06
2019-03-15T07:53:36.643Z,15.17
2019-03-15T07:56:08.498Z,15.78
2019-03-15T07:58:37.072Z,15.79
2019-03-15T08:01:05.709Z,16.48
2019-03-15T08:03:34.992Z,17.60
2019-03-15T08:06:03.710Z,17.40
2019-03-15T08:08:35.455Z,17.84
2019-03-15T08:11:04.036Z,17.98
2019-03-15T08:13:32.592Z,18.62
2019-03-15T08:16:01.239Z,18.96
2019-03-15T08:18:29.729Z,18.77
2019-03-15T08:20:58.379Z,19.53
2019-03-15T08:23:26.976Z,20.04
2019-03-15T08:25:55.731Z,19.63
2019-03-15T08:28:24.471Z,20.47
2019-03-15T08:30:53.201Z,20.79
2019-03-15T08:33:21.836Z,19.85
2019-03-15T08:35:50.548Z,20.67
2019-03-15T08:38:19.264Z,20.48
2019-03-15T08:40:47.845Z,21.31
2019-03-15T08:43:19.611Z,20.76
2019-03-15T08:45:48.308Z,21.31
2019-03-15T08:48:17.028Z,22.72
2019-03-15T08:50:45.784Z,22.65
2019-03-15T08:53:14.528Z,24.15
2019-03-15T08:55:43.253Z,22.79
2019-03-15T08:58:15.766Z,21.70
2019-03-15T09:00:42.615Z,22.75
2019-03-15T09:03:11.302Z,20.55
2019-03-15T09:05:39.951Z,19.44
2019-03-15T09:08:08.743Z,20.47
2019-03-15T09:10:37.419Z,21.41
2019-03-15T09:13:08.979Z,22.36
2019-03-15T09:15:40.658Z,22.43
2019-03-15T09:18:09.361Z,21.99
2019-03-15T09:20:38.083Z,21.17
2019-03-15T09:23:06.812Z,21.50
2019-03-15T09:25:38.319Z,22.71
2019-03-15T09:28:06.981Z,23.25
2019-03-15T09:30:35.683Z,22.69
2019-03-15T09:33:04.454Z,23.33
2019-03-15T09:35:33.243Z,24.34
2019-03-15T09:38:02.015Z,24.11
2019-03-15T09:40:30.853Z,22.10
2019-03-15T09:43:00.038Z,21.40
2019-03-15T09:45:29.079Z,20.88
2019-03-15T09:47:57.835Z,21.60
2019-03-15T09:50:34.202Z,22.42
2019-03-15T09:52:57.032Z,22.86
2019-03-15T09:55:32.893Z,22.73
2019-03-15T09:57:56.193Z,24.05
2019-03-15T10:00:24.845Z,23.31
2019-03-15T10:02:55.968Z,22.87
2019-03-15T10:05:23.746Z,23.34
2019-03-15T10:07:52.412Z,24.07
2019-03-15T10:10:21.035Z,26.09
2019-03-15T10:12:49.658Z,25.71
2019-03-15T10:15:18.403Z,25.75
2019-03-15T10:17:47.178Z,25.41
2019-03-15T10:20:16.175Z,25.70
2019-03-15T10:22:44.790Z,26.34
2019-03-15T10:25:15.406Z,26.34
2019-03-15T10:27:44.048Z,26.09
2019-03-15T10:30:16.805Z,27.34
2019-03-15T10:32:47.132Z,28.47
2019-03-15T10:35:17.409Z,25.50
2019-03-15T10:37:46.200Z,26.18
2019-03-15T10:40:17.249Z,27.22
2019-03-15T10:42:46.673Z,27.62
2019-03-15T10:45:23.797Z,26.57
2019-03-15T10:47:54.422Z,26.52
2019-03-15T10:50:23.226Z,25.48
2019-03-15T10:52:53.754Z,25.63
2019-03-15T10:55:22.596Z,24.52
2019-03-15T10:57:53.942Z,24.75
2019-03-15T11:00:22.700Z,24.90
2019-03-15T11:02:51.582Z,25.04
2019-03-15T11:05:20.283Z,25.96
2019-03-15T11:07:49.083Z,25.60
2019-03-15T11:10:17.922Z,25.46
2019-03-15T11:12:46.727Z,24.72
2019-03-15T11:15:16.240Z,24.82
2019-03-15T11:17:44.900Z,24.36
2019-03-15T11:20:14.056Z,22.30
2019-03-15T11:22:42.699Z,21.00
2019-03-15T11:25:14.457Z,20.65
2019-03-15T11:27:46.159Z,21.52
2019-03-15T11:30:15.188Z,21.09
2019-03-15T11:32:43.952Z,20.70
2019-03-15T11:35:13.477Z,20.60
2019-03-15T11:37:43.879Z,20.80
2019-03-15T11:40:19.097Z,20.90
2019-03-15T11:42:47.433Z,20.17
2019-03-15T11:45:16.306Z,19.79
2019-03-15T11:48:02.579Z,19.90
2019-03-15T11:50:21.905Z,19.94
2019-03-15T11:52:51.018Z,20.69
2019-03-15T11:55:19.903Z,21.28
2019-03-15T11:57:48.962Z,21.20
2019-03-15T12:00:18.807Z,20.05
2019-03-15T12:02:47.628Z,19.50
2019-03-15T12:05:16.715Z,19.56
2019-03-15T12:07:45.634Z,19.80
2019-03-15T12:10:15.149Z,19.30
2019-03-15T12:12:44.281Z,19.32
2019-03-15T12:15:18.142Z,19.26
2019-03-15T12:17:46.858Z,19.67
2019-03-15T12:20:15.544Z,19.80
2019-03-15T12:22:44.307Z,20.33
2019-03-15T12:25:13.929Z,22.18
2019-03-15T12:27:42.803Z,24.53
2019-03-15T12:30:19.147Z,24.36
2019-03-15T12:32:51.064Z,22.98
2019-03-15T12:35:20.006Z,22.01
2019-03-15T12:37:48.561Z,21.89
2019-03-15T12:40:19.074Z,23.38
2019-03-15T12:42:47.972Z,23.39
2019-03-15T12:45:16.679Z,24.34
2019-03-15T12:47:45.372Z,25.12
2019-03-15T12:50:16.282Z,24.66
2019-03-15T12:52:48.239Z,25.26
2019-03-15T12:55:17.483Z,26.87
2019-03-15T12:57:49.366Z,28.65
2019-03-15T13:00:22.623Z,27.86
2019-03-15T13:02:51.306Z,26.83
2019-03-15T13:05:19.933Z,25.29
2019-03-15T13:07:48.598Z,24.01
2019-03-15T13:10:19.670Z,23.83
2019-03-15T13:12:48.300Z,24.11
2019-03-15T13:15:17.377Z,25.06
2019-03-15T13:17:46.152Z,26.59
2019-03-15T13:20:16.750Z,28.52
2019-03-15T13:22:45.453Z,29.86
2019-03-15T13:25:14.499Z,28.53
2019-03-15T13:27:43.439Z,28.34
2019-03-15T13:30:13.538Z,28.85
2019-03-15T13:32:42.219Z,28.62
2019-03-15T13:35:11.485Z,29.31
2019-03-15T13:37:42.903Z,29.77
2019-03-15T13:40:13.657Z,29.78
2019-03-15T13:42:42.384Z,30.70
2019-03-15T13:45:13.146Z,31.35
2019-03-15T13:47:41.807Z,30.13
2019-03-15T13:50:21.618Z,29.66
2019-03-15T13:52:50.262Z,30.54
2019-03-15T13:55:18.984Z,30.70
2019-03-15T13:57:47.786Z,31.13
2019-03-15T14:00:18.218Z,32.09
2019-03-15T14:02:47.011Z,30.94
2019-03-15T14:05:15.638Z,30.44
2019-03-15T14:07:44.379Z,29.01
2019-03-15T14:10:16.582Z,29.17
2019-03-15T14:12:45.249Z,29.90
2019-03-15T14:15:15.297Z,29.66
2019-03-15T14:17:44.290Z,29.50
2019-03-15T14:20:13.682Z,28.09
2019-03-15T14:22:45.057Z,29.03
2019-03-15T14:25:21.672Z,29.24
2019-03-15T14:27:50.344Z,28.93
2019-03-15T14:30:19.011Z,28.55
2019-03-15T14:32:47.678Z,29.20
2019-03-15T14:35:16.348Z,30.24
2019-03-15T14:37:45.007Z,29.63
2019-03-15T14:40:13.702Z,29.45
2019-03-15T14:42:42.521Z,29.02
2019-03-15T14:45:12.651Z,28.63
2019-03-15T14:47:41.412Z,27.26
2019-03-15T14:50:13.778Z,25.23
2019-03-15T14:52:42.382Z,24.90
2019-03-15T14:55:11.913Z,26.04
2019-03-15T14:57:51.350Z,26.68
2019-03-15T15:00:20.514Z,27.83
2019-03-15T15:02:49.178Z,28.02
2019-03-15T15:05:17.820Z,26.63
2019-03-15T15:07:46.466Z,25.97
2019-03-15T15:10:17.125Z,25.12
2019-03-15T15:12:45.862Z,24.70
2019-03-15T15:15:16.404Z,24.15
2019-03-15T15:17:45.084Z,24.42
2019-03-15T15:20:13.731Z,24.65
2019-03-15T15:22:42.336Z,24.47
2019-03-15T15:25:18.596Z,22.47
2019-03-15T15:27:47.197Z,20.48
2019-03-15T15:30:18.033Z,18.39
2019-03-15T15:32:46.655Z,17.14
2019-03-15T15:35:15.540Z,16.15
2019-03-15T15:37:44.168Z,15.30
2019-03-15T15:40:15.094Z,14.93
2019-03-15T15:42:43.582Z,14.34
2019-03-15T15:45:13.116Z,14.15
2019-03-15T15:47:41.804Z,13.94
2019-03-15T15:50:11.723Z,13.66
2019-03-15T15:52:40.266Z,13.36
2019-03-15T15:55:11.168Z,13.18
2019-03-15T15:57:39.709Z,12.96
2019-03-15T16:00:17.335Z,12.83
2019-03-15T16:02:46.017Z,12.82
2019-03-15T16:05:14.869Z,12.78
2019-03-15T16:07:43.495Z,12.93
2019-03-15T16:10:17.671Z,12.92
2019-03-15T16:12:45.936Z,12.67
2019-03-15T16:15:16.576Z,12.60
2019-03-15T16:17:45.987Z,12.56
2019-03-15T16:20:14.856Z,12.48
2019-03-15T16:22:43.408Z,12.27
2019-03-15T16:25:12.549Z,12.16
2019-03-15T16:27:41.170Z,12.05
2019-03-15T16:30:20.332Z,11.93
2019-03-15T16:32:49.005Z,11.85
2019-03-15T16:35:17.636Z,11.73
2019-03-15T16:37:46.267Z,11.78
2019-03-15T16:40:15.788Z,11.64
2019-03-15T16:42:44.465Z,11.61
2019-03-15T16:45:25.111Z,11.36
2019-03-15T16:47:53.710Z,11.18
2019-03-15T16:50:22.326Z,11.06
2019-03-15T16:52:50.931Z,10.99
2019-03-15T16:55:19.489Z,10.90
2019-03-15T16:57:48.115Z,10.82
2019-03-15T17:00:17.146Z,10.77
2019-03-15T17:02:45.914Z,10.74
2019-03-15T17:05:14.906Z,10.92
2019-03-15T17:07:43.532Z,10.95
2019-03-15T17:10:14.351Z,10.81
2019-03-15T17:12:42.970Z,10.69
2019-03-15T17:15:22.935Z,10.82
2019-03-15T17:17:51.605Z,10.86
2019-03-15T17:20:20.334Z,10.74
2019-03-15T17:22:48.859Z,10.89
2019-03-15T17:25:17.490Z,10.97
2019-03-15T17:27:46.105Z,10.97
2019-03-15T17:30:17.916Z,11.05
2019-03-15T17:32:46.688Z,10.97
2019-03-15T17:35:17.233Z,10.97
2019-03-15T17:37:45.915Z,10.89
2019-03-15T17:40:21.218Z,10.84
2019-03-15T17:42:49.763Z,10.86
2019-03-15T17:45:20.652Z,10.98
2019-03-15T17:47:49.194Z,10.87
2019-03-15T17:50:22.337Z,11.04
2019-03-15T17:52:53.869Z,11.10
2019-03-15T17:55:22.564Z,11.10
2019-03-15T17:57:51.177Z,11.09
2019-03-15T18:00:24.139Z,11.05
2019-03-15T18:02:52.765Z,11.01
2019-03-15T18:05:21.398Z,10.94
2019-03-15T18:07:52.546Z,10.89
2019-03-15T18:10:21.177Z,10.97
2019-03-15T18:12:49.825Z,10.98
2019-03-15T18:15:18.463Z,10.94
2019-03-15T18:17:47.149Z,10.95
2019-03-15T18:20:15.768Z,10.89
2019-03-15T18:22:44.400Z,10.77
2019-03-15T18:25:13.191Z,10.75
2019-03-15T18:27:42.062Z,10.79
2019-03-15T18:30:12.930Z,10.90
2019-03-15T18:32:41.565Z,10.89
2019-03-15T18:35:11.191Z,10.88
2019-03-15T18:37:39.862Z,10.89
2019-03-15T18:40:11.220Z,10.87
2019-03-15T18:42:39.902Z,10.83
2019-03-15T18:45:13.743Z,10.87
2019-03-15T18:47:42.382Z,10.85
2019-03-15T18:50:19.915Z,10.77
2019-03-15T18:52:48.547Z,10.77
2019-03-15T18:55:17.216Z,10.75
2019-03-15T18:57:45.851Z,10.75
2019-03-15T19:00:25.428Z,10.71
2019-03-15T19:02:53.996Z,10.62
2019-03-15T19:05:22.603Z,10.50
2019-03-15T19:07:51.337Z,10.44
2019-03-15T19:10:22.034Z,10.41
2019-03-15T19:12:50.683Z,10.40
2019-03-15T19:15:21.397Z,10.35
2019-03-15T19:17:50.022Z,10.32
2019-03-15T19:20:18.702Z,10.27
2019-03-15T19:22:50.294Z,10.25
2019-03-15T19:25:18.973Z,10.29
2019-03-15T19:27:47.543Z,10.44
2019-03-15T19:30:19.741Z,10.53
2019-03-15T19:32:48.433Z,10.54
2019-03-15T19:35:17.054Z,10.54
2019-03-15T19:37:45.677Z,10.44
2019-03-15T19:40:18.962Z,10.35
2019-03-15T19:42:47.631Z,10.21
2019-03-15T19:45:17.015Z,10.11
2019-03-15T19:47:45.660Z,9.99
2019-03-15T19:50:16.333Z,9.87
2019-03-15T19:52:45.003Z,9.72
2019-03-15T19:55:15.392Z,9.60
2019-03-15T19:57:44.064Z,9.45
2019-03-15T20:00:18.017Z,9.34
2019-03-15T20:02:46.631Z,9.25
2019-03-15T20:05:15.292Z,9.13
2019-03-15T20:07:44.109Z,9.04
2019-03-15T20:10:17.320Z,9.01
2019-03-15T20:12:46.153Z,8.93
2019-03-15T20:15:16.070Z,8.80
2019-03-15T20:17:44.800Z,8.82
2019-03-15T20:20:17.329Z,8.86
2019-03-15T20:22:46.100Z,8.66
2019-03-15T20:25:18.661Z,8.45
2019-03-15T20:27:47.342Z,8.27
2019-03-15T20:30:26.237Z,8.18
2019-03-15T20:32:51.800Z,8.10
2019-03-15T20:35:20.468Z,8.03
2019-03-15T20:37:49.097Z,8.08
2019-03-15T20:40:17.761Z,8.06
2019-03-15T20:42:46.404Z,8.10
2019-03-15T20:45:27.730Z,8.11
2019-03-15T20:47:56.360Z,8.06
2019-03-15T20:50:25.039Z,7.87
2019-03-15T20:53:07.205Z,7.71
2019-03-15T20:55:24.097Z,7.57
2019-03-15T20:57:52.694Z,7.48
2019-03-15T21:00:34.868Z,7.40
2019-03-15T21:02:52.805Z,7.31
2019-03-15T21:05:21.428Z,7.12
2019-03-15T21:07:50.091Z,6.91
2019-03-15T21:10:19.120Z,6.71
2019-03-15T21:12:47.807Z,6.55
2019-03-15T21:15:16.860Z,6.48
2019-03-15T21:17:45.508Z,6.44
2019-03-15T21:20:18.696Z,6.42
2019-03-15T21:22:47.608Z,6.57
2019-03-15T21:25:16.242Z,6.71
2019-03-15T21:27:53.702Z,6.75
2019-03-15T21:30:20.352Z,6.78
2019-03-15T21:32:48.895Z,6.85
2019-03-15T21:35:17.516Z,6.97
2019-03-15T21:37:46.152Z,7.00
2019-03-15T21:40:16.867Z,7.05
2019-03-15T21:42:45.433Z,7.06
2019-03-15T21:45:14.309Z,7.01
2019-03-15T21:47:42.861Z,6.97
2019-03-15T21:50:21.149Z,6.92
2019-03-15T21:52:49.806Z,6.87
2019-03-15T21:55:18.496Z,6.79
2019-03-15T21:57:47.128Z,6.78
2019-03-15T22:00:20.443Z,6.83
2019-03-15T22:02:49.002Z,6.85
2019-03-15T22:05:17.680Z,6.86
2019-03-15T22:07:46.272Z,6.82
2019-03-15T22:10:15.597Z,6.79
2019-03-15T22:12:44.220Z,6.71
2019-03-15T22:15:13.758Z,6.70
2019-03-15T22:17:42.487Z,6.68
2019-03-15T22:20:13.210Z,6.68
2019-03-15T22:22:41.875Z,6.69
2019-03-15T22:25:10.494Z,6.73
2019-03-15T22:27:39.249Z,6.73
2019-03-15T22:30:13.757Z,6.51
2019-03-15T22:32:42.362Z,6.48
2019-03-15T22:35:11.086Z,6.55
2019-03-15T22:37:39.709Z,6.43
2019-03-15T22:40:12.907Z,6.46
2019-03-15T22:42:41.555Z,6.38
2019-03-15T22:45:11.471Z,6.45
2019-03-15T22:47:40.097Z,6.48
2019-03-15T22:50:12.545Z,6.37
2019-03-15T22:52:41.168Z,6.35
2019-03-15T22:55:10.837Z,6.37
2019-03-15T22:57:39.558Z,6.30
2019-03-15T23:00:13.681Z,6.24
2019-03-15T23:02:42.231Z,6.24
2019-03-15T23:05:10.891Z,6.15
2019-03-15T23:07:39.487Z,6.09
2019-03-15T23:10:10.312Z,6.14
2019-03-15T23:12:38.982Z,6.18
2019-03-15T23:15:09.674Z,6.26
2019-03-15T23:17:38.259Z,6.34
2019-03-15T23:20:08.581Z,6.35
2019-03-15T23:22:37.174Z,6.38
2019-03-15T23:25:06.805Z,6.44
2019-03-15T23:27:35.368Z,6.42
2019-03-15T23:30:05.291Z,6.35
2019-03-15T23:32:33.839Z,6.32
2019-03-15T23:35:02.423Z,6.31
2019-03-15T23:37:33.757Z,6.35
2019-03-15T23:40:02.246Z,6.35
2019-03-15T23:42:30.811Z,6.35
2019-03-15T23:44:59.341Z,6.27
2019-03-15T23:47:27.961Z,6.23
2019-03-15T23:49:56.635Z,6.14
2019-03-15T23:52:25.233Z,6.03
2019-03-15T23:54:53.876Z,5.98
2019-03-15T23:57:22.429Z,5.93
2019-03-15T23:59:50.990Z,5.87
